Strona główna
METAR-TAF:

METAR-TAF

Lotnisko :

Port lotniczy Londyn-City

Londyn, Anglia

Szerokość geograficzna: 51-30N, Długość geograficzna: 000-03E, wysokość: 5 m

Aktualna obserwacja pogody

Raport powstał 39 minut temu, godzina 16:20 UTC
Wiatr 7 kt od zachodnio-północny zachód, zmienny między zachód i północ
Temperatura 23°C
Wilgotność 44%
Ciśnienie 1024 hPa
Widzialność 10 km lub więcej

METAR: EGLC 121620Z AUTO 30007KT 260V360 9999 NCD 23/10 Q1024

czas: 17:59 (16:59 UTC)

Prognoza

Raport powstał 8 godziny i 56 minut temu, godzina 08:03 UTC
Prognoza ważna od 12 godzina 09 UTC do 12 godzina 12 UTC
Wiatr 6 kt od północny zachód
Widzialność 10 km lub więcej
Mało chmury na wysokości 3000 ft

TAF: EGLC 120803Z 1209/1212 32006KT 9999 FEW030

Obserwacja i prognoza pogody dla ponad 4000 lotnisk (raport METAR i TAF).

Dostępne stacje oznaczono żółtymi i czerwonymi punktami na mapie.

Najedź kursorem aby zobaczyć nazwę stacji.

Kliknij aby zobaczyć obserwacje i prognozy pogody.

Aby zmienić mapę: kliknij na zielony przycisk z czarnym krzyżykiem, aby powiększyć; na zielony przycisk z myślnikiem, aby pomniejszyć; na zielone strzałki, aby przejść do map sąsiednich.


METAR-TAF: